Date,TemperatureHighF,TemperatureAvgF,TemperatureLowF,DewpointHighF,DewpointAvgF,DewpointLowF,HumidityHigh,HumidityAvg,HumidityLow,PressureMaxIn,PressureMinIn,WindSpeedMaxMPH,WindSpeedAvgMPH,GustSpeedMaxMPH,PrecipitationSumIn
2013-3-1,36,33,30,24,21,19,69,61,51,27.92,27.80,0,0,0,0.00
2013-3-2,32,29,27,20,17,13,68,61,55,27.91,27.83,0,0,0,0.00
2013-3-3,40,28,23,15,12,9,62,50,32,27.93,27.83,0,0,0,0.00
2013-3-4,45,32,21,9,5,0,56,35,15,28.06,27.91,0,0,0,0.00
2013-3-5,43,37,29,31,18,-3,99,53,18,28.07,27.73,0,0,0,0.00
2013-3-6,29,28,28,28,28,27,99,99,99,27.72,27.60,0,0,0,0.00
2013-3-7,28,28,28,28,28,28,99,99,99,27.61,27.61,0,0,0,0.00
2013-3-8,28,28,28,28,28,28,99,99,99,27.61,27.61,0,0,0,0.00
2013-3-9,28,28,28,28,28,28,99,99,99,27.61,27.61,0,0,0,0.00
2013-3-10,28,28,28,28,28,28,99,99,99,27.61,27.61,0,0,0,0.00
2013-3-11,28,28,28,28,28,28,99,99,99,27.61,27.61,0,0,0,0.00
2013-3-12,28,28,28,28,28,28,99,99,99,27.61,27.61,0,0,0,0.00
2013-3-13,43,30,28,28,23,8,99,78,33,28.10,27.61,0,0,0,0.00
2013-3-14,45,33,24,13,9,5,56,38,20,28.16,28.06,0,0,0,0.00
2013-3-15,55,42,31,29,18,8,45,37,33,28.13,27.88,0,0,0,0.00
2013-3-16,65,53,42,50,40,28,95,61,39,27.92,27.70,24,3,24,0.25
2013-3-17,42,33,28,39,32,28,100,98,88,28.24,27.92,11,11,0,0.14
2013-3-18,31,28,27,30,28,27,100,99,99,28.25,27.89,11,11,0,0.00
2013-3-19,57,44,29,44,20,-7,99,51,10,28.00,27.79,11,11,0,0.03
2013-3-20,49,40,32,8,3,-4,30,21,15,28.04,27.80,11,11,0,0.00
2013-3-21,41,28,22,25,10,1,78,47,22,27.93,27.78,11,11,0,0.00
2013-3-22,46,31,20,13,8,4,57,39,24,28.01,27.92,11,11,0,0.00
2013-3-23,52,41,34,18,11,7,36,30,23,28.06,27.94,11,11,0,0.00
2013-3-24,42,31,27,27,21,12,99,71,29,28.00,27.63,11,11,0,0.00
2013-3-25,34,30,26,33,27,20,99,90,58,27.75,27.55,11,11,0,0.22
2013-3-26,42,36,32,26,22,19,67,58,41,28.07,27.74,11,11,0,0.14
2013-3-27,42,36,31,25,20,16,71,54,38,28.19,28.06,11,11,0,0.00
2013-3-28,44,37,32,22,20,16,59,49,34,28.27,28.13,11,11,0,0.00
2013-3-29,52,43,37,25,20,17,54,41,25,28.30,28.18,11,11,0,0.00
2013-3-30,59,49,42,24,22,18,46,35,25,28.27,28.13,11,11,0,0.00
2013-3-31,52,46,40,50,39,22,99,79,32,28.13,27.84,11,11,0,0.07